Nearby METAR Reports

 

KSJC - San Jose, California, USA
Distance from station: NØ 14km
Oppdatert: 20/04/2021 13:53
Klart
Klart
 Vind fra SSØ
Vind: SSØ 13 km/h
Temperatur: 9°C
Wind Chill: 7°C
Duggpunkt: 7°C
Fuktighet: 87%
Barometer: 1015.6 hPa
Clouds: Klart
Visibility: 16 km
2021/04/20 11:53 KSJC 201153Z AUTO 15007KT 10SM CLR 09/07 A2999 RMK AO2 SLP154 7//// T00890067 10122 20089 56015
KNUQ - Moffett Nas/Mtn, California, USA
Distance from station: N 14km
Oppdatert: 14/04/2021 00:40
NOT Current

 
2021/04/13 22:40 KNUQ 132240Z AUTO RMK AO2 PNO PWINO TSNO
 
KPAO - Palo Alto, California, USA
Distance from station: NNV 23km
Oppdatert: 20/04/2021 05:47
NOT Current
Klart
Klart
 Vind fra VNV
Vind: VNV 7 km/h
Temperatur: 12°C
Duggpunkt: 7°C
Fuktighet: 72%
Barometer: 1017.6 hPa
Clouds: Klart
Visibility: 16 km
2021/04/20 03:47 KPAO 200347Z 29004KT 10SM SKC 12/07 A3005 RMK LAST
KRHV - San Jose/Reid, California, USA
Distance from station: ØNØ 19km
Oppdatert: 20/04/2021 06:55
NOT Current
Klart
Klart
 Vind fra NV
Vind: NV 7 km/h
Temperatur: 13°C
Duggpunkt: 7°C
Fuktighet: 67%
Barometer: 1017.6 hPa
Clouds: Klart
Visibility: 16 km
2021/04/20 04:55 KRHV 200455Z 31004KT 10SM SKC 13/07 A3005 RMK LAST
 
KOAK - Oakland, California, USA
Distance from station: NNV 50km
Oppdatert: 20/04/2021 13:53
Hovedsaklig skyet
Hovedsaklig skyet
 Vind fra SV
Vind: SV 19 km/h
Temperatur: 11°C
Duggpunkt: 8°C
Fuktighet: 82%
Barometer: 1015.2 hPa
Clouds: Hovedsaklig skyet
Visibility: 16 km
Cloud details: Hovedsaklig skyet 335 m
2021/04/20 11:53 KOAK 201153Z 23010KT 10SM BKN011 11/08 A2998 RMK AO2 SLP151 T01060078 10122 20106 56014
KSQL - San Carlos Airpo, California, USA
Distance from station: NV 34km
Oppdatert: 20/04/2021 14:15
Klart
Klart
 Vind fra SSV
Vind: SSV 7 km/h
Temperatur: 10°C
Wind Chill: 9°C
Duggpunkt: 7°C
Fuktighet: 82%
Barometer: 1015.6 hPa
Clouds: Klart
Visibility: 16 km
2021/04/20 12:15 KSQL 201215Z AUTO 21004KT 10SM CLR 10/07 A2999 RMK AO2
 
KSFO - San Francisco, California, USA
Distance from station: NV 49km
Oppdatert: 20/04/2021 13:56
Hovedsaklig skyet
Hovedsaklig skyet
 Vind fra V
Vind: V 24 km/h
Temperatur: 12°C
Duggpunkt: 8°C
Fuktighet: 77%
Barometer: 1014.9 hPa
Clouds: Hovedsaklig skyet
Visibility: 16 km
Cloud details: Few Clouds 274 m
Hovedsaklig skyet 366 m
2021/04/20 11:56 KSFO 201156Z 27013KT 10SM FEW009 BKN012 12/08 A2997 RMK AO2 SLP148 T01170078 10122 20117 56011
KE16 - San Martin, California, USA
Distance from station: ØSØ 43km
Oppdatert: 20/04/2021 14:15
Overskyet
Overskyet
 Vind fra calm
Vind: Stille
Temperatur: 9°C
Duggpunkt: 8°C
Fuktighet: 94%
Barometer: 1016.6 hPa
Clouds: Overskyet
Visibility: 16 km
Cloud details: Overskyet 305 m
2021/04/20 12:15 KE16 201215Z AUTO 00000KT 10SM OVC010 09/08 A3002 RMK AO2 PWINO PNO
 
KWVI - Watsonville, California, USA
Distance from station: SSØ 44km
Oppdatert: 20/04/2021 14:22
Hovedsaklig skyet
Hovedsaklig skyet
 Vind fra calm
Vind: Stille
Temperatur: 9°C
Duggpunkt: 8°C
Fuktighet: 94%
Barometer: 1016.3 hPa
Clouds: Hovedsaklig skyet
Visibility: 16 km
Cloud details: Hovedsaklig skyet 274 m
2021/04/20 12:22 KWVI 201222Z AUTO 00000KT 10SM BKN009 09/08 A3001 RMK AO2 CIG 007V012 T00890078
KHAF - Half Moon Bay, California, USA
Distance from station: VNV 50km
Oppdatert: 20/04/2021 14:15
Mist, Overskyet
Mist, Overskyet
 Vind fra NNV
Vind: NNV 30 km/h, Vindkast: 43 km/h
Temperatur: 10°C
Wind Chill: 7°C
Duggpunkt: 8°C
Fuktighet: 88%
Barometer: 1015.9 hPa
Oversikt: Mist
Clouds: Overskyet
Visibility: 8 km
Cloud details: Overskyet 305 m
2021/04/20 12:15 KHAF 201215Z AUTO 33016G23KT 5SM BR OVC010 10/08 A3000 RMK AO2
 
KHWD - Hayward, California, USA
Distance from station: N 44km
Oppdatert: 20/04/2021 14:05
Overskyet
Overskyet
 Vind fra SV
Vind: SV 13 km/h
Temperatur: 11°C
Duggpunkt: 7°C
Fuktighet: 77%
Barometer: 1015.2 hPa
Clouds: Overskyet
Visibility: 16 km
Cloud details: Overskyet 457 m
2021/04/20 12:05 KHWD 201205Z AUTO 23007KT 10SM OVC015 11/07 A2998 RMK AO2 T01110072
KLVK - Livermore, California, USA
Distance from station: NNØ 51km
Oppdatert: 20/04/2021 13:53
Klart
Klart
 Vind fra VNV
Vind: VNV 6 km/h
Temperatur: 9°C
Duggpunkt: 6°C
Fuktighet: 82%
Barometer: 1014.6 hPa
Clouds: Klart
Visibility: 16 km
2021/04/20 11:53 KLVK 201153Z AUTO 29003KT 10SM CLR 09/06 A2996 RMK AO2 SLP142 T00890061 10106 20089 56013